sensor_id;sensor_type;location;lat;lon;timestamp;temperature;humidity
24085;DHT22;12268;52.110;5.548;2022-07-29T00:01:19;20.90;98.60
24085;DHT22;12268;52.110;5.548;2022-07-29T00:03:45;21.00;98.90
24085;DHT22;12268;52.110;5.548;2022-07-29T00:06:10;21.00;98.70
24085;DHT22;12268;52.110;5.548;2022-07-29T00:08:36;21.00;99.00
24085;DHT22;12268;52.110;5.548;2022-07-29T00:11:02;20.80;99.30
24085;DHT22;12268;52.110;5.548;2022-07-29T00:13:27;20.80;99.50
24085;DHT22;12268;52.110;5.548;2022-07-29T00:15:53;20.80;99.80
24085;DHT22;12268;52.110;5.548;2022-07-29T00:18:18;20.70;99.90
24085;DHT22;12268;52.110;5.548;2022-07-29T00:20:44;20.70;99.90
24085;DHT22;12268;52.110;5.548;2022-07-29T00:23:09;20.80;99.90
24085;DHT22;12268;52.110;5.548;2022-07-29T00:25:35;20.90;99.90
24085;DHT22;12268;52.110;5.548;2022-07-29T00:28:00;20.90;99.90
24085;DHT22;12268;52.110;5.548;2022-07-29T00:30:26;20.80;99.90
24085;DHT22;12268;52.110;5.548;2022-07-29T00:32:51;20.70;99.90
24085;DHT22;12268;52.110;5.548;2022-07-29T00:35:17;20.70;99.90
24085;DHT22;12268;52.110;5.548;2022-07-29T00:38:01;20.80;99.90
24085;DHT22;12268;52.110;5.548;2022-07-29T00:40:26;20.70;99.90
24085;DHT22;12268;52.110;5.548;2022-07-29T00:42:52;20.70;99.90
24085;DHT22;12268;52.110;5.548;2022-07-29T00:45:18;20.60;99.90
24085;DHT22;12268;52.110;5.548;2022-07-29T00:47:44;20.60;99.90
24085;DHT22;12268;52.110;5.548;2022-07-29T00:50:12;20.40;99.90
24085;DHT22;12268;52.110;5.548;2022-07-29T00:52:39;20.50;99.90
24085;DHT22;12268;52.110;5.548;2022-07-29T00:55:08;20.50;99.90
24085;DHT22;12268;52.110;5.548;2022-07-29T00:57:35;20.60;99.90
24085;DHT22;12268;52.110;5.548;2022-07-29T01:00:01;20.60;99.90
24085;DHT22;12268;52.110;5.548;2022-07-29T01:02:26;20.30;99.90
24085;DHT22;12268;52.110;5.548;2022-07-29T01:04:52;20.30;99.90
24085;DHT22;12268;52.110;5.548;2022-07-29T01:07:18;20.30;99.90
24085;DHT22;12268;52.110;5.548;2022-07-29T01:09:45;20.30;99.90
24085;DHT22;12268;52.110;5.548;2022-07-29T01:12:22;20.30;99.90
24085;DHT22;12268;52.110;5.548;2022-07-29T01:14:49;20.40;99.90
24085;DHT22;12268;52.110;5.548;2022-07-29T01:20:41;20.50;99.90
24085;DHT22;12268;52.110;5.548;2022-07-29T01:23:25;20.40;99.90
24085;DHT22;12268;52.110;5.548;2022-07-29T01:26:33;20.30;99.90
24085;DHT22;12268;52.110;5.548;2022-07-29T01:31:43;20.30;99.90
24085;DHT22;12268;52.110;5.548;2022-07-29T01:34:16;20.30;99.90
24085;DHT22;12268;52.110;5.548;2022-07-29T01:36:43;20.30;99.90
24085;DHT22;12268;52.110;5.548;2022-07-29T01:39:17;20.30;99.90
24085;DHT22;12268;52.110;5.548;2022-07-29T01:41:51;20.30;99.90
24085;DHT22;12268;52.110;5.548;2022-07-29T01:44:34;20.20;99.90
24085;DHT22;12268;52.110;5.548;2022-07-29T01:47:07;20.20;99.90
24085;DHT22;12268;52.110;5.548;2022-07-29T01:49:36;20.20;99.90
24085;DHT22;12268;52.110;5.548;2022-07-29T01:52:11;20.20;99.90
24085;DHT22;12268;52.110;5.548;2022-07-29T01:54:59;20.20;99.90
24085;DHT22;12268;52.110;5.548;2022-07-29T01:57:29;20.20;99.90
24085;DHT22;12268;52.110;5.548;2022-07-29T01:59:57;20.10;99.90
24085;DHT22;12268;52.110;5.548;2022-07-29T02:02:24;20.20;99.90
24085;DHT22;12268;52.110;5.548;2022-07-29T02:04:52;20.20;99.90
24085;DHT22;12268;52.110;5.548;2022-07-29T02:07:21;20.20;99.90
24085;DHT22;12268;52.110;5.548;2022-07-29T02:09:50;20.10;99.90
24085;DHT22;12268;52.110;5.548;2022-07-29T02:12:17;20.20;99.90
24085;DHT22;12268;52.110;5.548;2022-07-29T02:14:47;20.10;99.90
24085;DHT22;12268;52.110;5.548;2022-07-29T02:17:13;20.10;99.90
24085;DHT22;12268;52.110;5.548;2022-07-29T02:19:43;20.00;99.90
24085;DHT22;12268;52.110;5.548;2022-07-29T02:22:10;20.10;99.90
24085;DHT22;12268;52.110;5.548;2022-07-29T02:24:37;20.10;99.90
24085;DHT22;12268;52.110;5.548;2022-07-29T02:27:05;20.20;99.90
24085;DHT22;12268;52.110;5.548;2022-07-29T02:29:32;19.90;99.90
24085;DHT22;12268;52.110;5.548;2022-07-29T02:32:00;20.00;99.90
24085;DHT22;12268;52.110;5.548;2022-07-29T02:34:29;20.00;99.90
24085;DHT22;12268;52.110;5.548;2022-07-29T02:36:55;19.90;99.90
24085;DHT22;12268;52.110;5.548;2022-07-29T02:39:21;20.00;99.90
24085;DHT22;12268;52.110;5.548;2022-07-29T02:41:50;20.10;99.90
24085;DHT22;12268;52.110;5.548;2022-07-29T02:44:21;20.10;99.90
24085;DHT22;12268;52.110;5.548;2022-07-29T02:52:29;20.10;99.90
24085;DHT22;12268;52.110;5.548;2022-07-29T02:55:01;20.20;99.90
24085;DHT22;12268;52.110;5.548;2022-07-29T02:57:54;20.10;99.90
24085;DHT22;12268;52.110;5.548;2022-07-29T03:00:27;20.10;99.90
24085;DHT22;12268;52.110;5.548;2022-07-29T03:02:56;20.10;99.90
24085;DHT22;12268;52.110;5.548;2022-07-29T03:05:22;20.10;99.90
24085;DHT22;12268;52.110;5.548;2022-07-29T03:07:55;20.10;99.90
24085;DHT22;12268;52.110;5.548;2022-07-29T03:10:23;20.10;99.90
24085;DHT22;12268;52.110;5.548;2022-07-29T03:12:50;20.10;99.90
24085;DHT22;12268;52.110;5.548;2022-07-29T03:15:16;20.10;99.90
24085;DHT22;12268;52.110;5.548;2022-07-29T03:17:43;20.10;99.90
24085;DHT22;12268;52.110;5.548;2022-07-29T03:20:09;20.20;99.90
24085;DHT22;12268;52.110;5.548;2022-07-29T03:22:40;20.30;99.90
24085;DHT22;12268;52.110;5.548;2022-07-29T03:25:12;20.30;99.90
24085;DHT22;12268;52.110;5.548;2022-07-29T03:27:38;20.30;99.90
24085;DHT22;12268;52.110;5.548;2022-07-29T03:30:05;20.20;99.90
24085;DHT22;12268;52.110;5.548;2022-07-29T03:32:31;20.20;99.90
24085;DHT22;12268;52.110;5.548;2022-07-29T03:34:56;20.20;99.90
24085;DHT22;12268;52.110;5.548;2022-07-29T03:37:22;20.10;99.90
24085;DHT22;12268;52.110;5.548;2022-07-29T03:39:49;20.10;99.90
24085;DHT22;12268;52.110;5.548;2022-07-29T03:42:16;20.10;99.90
24085;DHT22;12268;52.110;5.548;2022-07-29T03:44:45;20.10;99.90
24085;DHT22;12268;52.110;5.548;2022-07-29T03:47:13;20.10;99.90
24085;DHT22;12268;52.110;5.548;2022-07-29T03:49:40;20.10;99.90
24085;DHT22;12268;52.110;5.548;2022-07-29T03:52:07;20.10;99.90
24085;DHT22;12268;52.110;5.548;2022-07-29T03:54:33;20.10;99.90
24085;DHT22;12268;52.110;5.548;2022-07-29T03:57:01;20.10;99.90
24085;DHT22;12268;52.110;5.548;2022-07-29T03:59:27;20.10;99.90
24085;DHT22;12268;52.110;5.548;2022-07-29T04:01:53;20.10;99.90
24085;DHT22;12268;52.110;5.548;2022-07-29T04:04:21;20.00;99.90
24085;DHT22;12268;52.110;5.548;2022-07-29T04:06:47;20.10;99.90
24085;DHT22;12268;52.110;5.548;2022-07-29T04:09:12;20.00;99.90
24085;DHT22;12268;52.110;5.548;2022-07-29T04:11:39;20.00;99.90
24085;DHT22;12268;52.110;5.548;2022-07-29T04:14:05;20.00;99.90
24085;DHT22;12268;52.110;5.548;2022-07-29T04:16:31;20.00;99.90
24085;DHT22;12268;52.110;5.548;2022-07-29T04:18:57;20.00;99.90
24085;DHT22;12268;52.110;5.548;2022-07-29T04:21:22;20.10;99.90
24085;DHT22;12268;52.110;5.548;2022-07-29T04:23:48;20.00;99.90
24085;DHT22;12268;52.110;5.548;2022-07-29T04:26:18;20.00;99.90
24085;DHT22;12268;52.110;5.548;2022-07-29T04:28:44;20.10;99.90
24085;DHT22;12268;52.110;5.548;2022-07-29T04:31:10;20.10;99.90
24085;DHT22;12268;52.110;5.548;2022-07-29T04:33:36;20.20;99.90
24085;DHT22;12268;52.110;5.548;2022-07-29T04:36:01;20.10;99.90
24085;DHT22;12268;52.110;5.548;2022-07-29T04:38:27;20.00;99.90
24085;DHT22;12268;52.110;5.548;2022-07-29T04:40:52;20.00;99.90
24085;DHT22;12268;52.110;5.548;2022-07-29T04:43:18;19.70;99.90
24085;DHT22;12268;52.110;5.548;2022-07-29T04:45:44;19.40;99.90
24085;DHT22;12268;52.110;5.548;2022-07-29T04:48:09;19.70;99.90
24085;DHT22;12268;52.110;5.548;2022-07-29T04:50:38;19.90;99.90
24085;DHT22;12268;52.110;5.548;2022-07-29T04:53:03;20.00;99.90
24085;DHT22;12268;52.110;5.548;2022-07-29T04:55:29;20.00;99.90
24085;DHT22;12268;52.110;5.548;2022-07-29T04:57:54;20.10;99.90
24085;DHT22;12268;52.110;5.548;2022-07-29T05:00:20;20.10;99.90
24085;DHT22;12268;52.110;5.548;2022-07-29T05:02:45;20.20;99.90
24085;DHT22;12268;52.110;5.548;2022-07-29T05:05:11;20.20;99.90
24085;DHT22;12268;52.110;5.548;2022-07-29T05:07:36;20.20;99.90
24085;DHT22;12268;52.110;5.548;2022-07-29T05:10:02;20.20;99.90
24085;DHT22;12268;52.110;5.548;2022-07-29T05:12:28;20.10;99.90
24085;DHT22;12268;52.110;5.548;2022-07-29T05:14:54;20.10;99.90
24085;DHT22;12268;52.110;5.548;2022-07-29T05:17:20;20.20;99.90
24085;DHT22;12268;52.110;5.548;2022-07-29T05:19:45;20.10;99.90
24085;DHT22;12268;52.110;5.548;2022-07-29T05:22:11;19.90;99.90
24085;DHT22;12268;52.110;5.548;2022-07-29T05:24:37;20.00;99.90
24085;DHT22;12268;52.110;5.548;2022-07-29T05:27:02;20.10;99.90
24085;DHT22;12268;52.110;5.548;2022-07-29T05:29:28;19.90;99.90
24085;DHT22;12268;52.110;5.548;2022-07-29T05:31:53;19.70;99.90
24085;DHT22;12268;52.110;5.548;2022-07-29T05:34:19;20.00;99.90
24085;DHT22;12268;52.110;5.548;2022-07-29T05:36:45;20.10;99.90
24085;DHT22;12268;52.110;5.548;2022-07-29T05:39:11;20.00;99.90
24085;DHT22;12268;52.110;5.548;2022-07-29T05:41:38;20.10;99.90
24085;DHT22;12268;52.110;5.548;2022-07-29T05:44:04;20.20;99.90
24085;DHT22;12268;52.110;5.548;2022-07-29T05:46:29;20.40;99.90
24085;DHT22;12268;52.110;5.548;2022-07-29T05:48:55;20.60;99.90
24085;DHT22;12268;52.110;5.548;2022-07-29T05:51:20;20.60;99.90
24085;DHT22;12268;52.110;5.548;2022-07-29T05:53:46;20.70;99.90
24085;DHT22;12268;52.110;5.548;2022-07-29T05:56:11;20.60;99.90
24085;DHT22;12268;52.110;5.548;2022-07-29T05:58:37;20.70;99.90
24085;DHT22;12268;52.110;5.548;2022-07-29T06:01:03;20.70;99.90
24085;DHT22;12268;52.110;5.548;2022-07-29T06:03:28;20.70;99.90
24085;DHT22;12268;52.110;5.548;2022-07-29T06:05:54;20.80;99.90
24085;DHT22;12268;52.110;5.548;2022-07-29T06:08:20;21.00;99.90
24085;DHT22;12268;52.110;5.548;2022-07-29T06:10:45;20.90;99.90
24085;DHT22;12268;52.110;5.548;2022-07-29T06:13:12;20.70;99.90
24085;DHT22;12268;52.110;5.548;2022-07-29T06:15:37;20.40;99.90
24085;DHT22;12268;52.110;5.548;2022-07-29T06:18:03;20.40;99.90
24085;DHT22;12268;52.110;5.548;2022-07-29T06:20:29;20.50;99.90
24085;DHT22;12268;52.110;5.548;2022-07-29T06:22:55;20.60;99.90
24085;DHT22;12268;52.110;5.548;2022-07-29T06:25:21;20.80;99.90
24085;DHT22;12268;52.110;5.548;2022-07-29T06:27:47;20.90;99.90
24085;DHT22;12268;52.110;5.548;2022-07-29T06:30:12;20.70;99.90
24085;DHT22;12268;52.110;5.548;2022-07-29T06:32:38;20.80;99.90
24085;DHT22;12268;52.110;5.548;2022-07-29T06:35:04;20.40;99.90
24085;DHT22;12268;52.110;5.548;2022-07-29T06:37:30;20.40;99.90
24085;DHT22;12268;52.110;5.548;2022-07-29T06:39:55;20.60;99.90
24085;DHT22;12268;52.110;5.548;2022-07-29T06:42:43;20.40;99.90
24085;DHT22;12268;52.110;5.548;2022-07-29T06:45:10;20.20;99.90
24085;DHT22;12268;52.110;5.548;2022-07-29T06:47:35;20.40;99.90
24085;DHT22;12268;52.110;5.548;2022-07-29T06:50:02;20.60;99.90
24085;DHT22;12268;52.110;5.548;2022-07-29T06:52:27;20.90;99.90
24085;DHT22;12268;52.110;5.548;2022-07-29T06:54:53;21.30;99.90
24085;DHT22;12268;52.110;5.548;2022-07-29T06:57:20;21.60;99.90
24085;DHT22;12268;52.110;5.548;2022-07-29T06:59:46;21.80;99.90
24085;DHT22;12268;52.110;5.548;2022-07-29T07:02:11;22.30;99.90
24085;DHT22;12268;52.110;5.548;2022-07-29T07:04:37;22.60;99.90
24085;DHT22;12268;52.110;5.548;2022-07-29T07:07:02;22.80;99.90
24085;DHT22;12268;52.110;5.548;2022-07-29T07:09:28;22.30;99.90
24085;DHT22;12268;52.110;5.548;2022-07-29T07:11:53;22.50;99.90
24085;DHT22;12268;52.110;5.548;2022-07-29T07:14:19;22.70;99.90
24085;DHT22;12268;52.110;5.548;2022-07-29T07:16:44;22.70;99.90
24085;DHT22;12268;52.110;5.548;2022-07-29T07:19:10;22.70;99.90
24085;DHT22;12268;52.110;5.548;2022-07-29T07:21:36;22.90;99.90
24085;DHT22;12268;52.110;5.548;2022-07-29T07:24:01;23.00;99.90
24085;DHT22;12268;52.110;5.548;2022-07-29T07:26:27;23.20;99.90
24085;DHT22;12268;52.110;5.548;2022-07-29T07:28:52;23.50;99.90
24085;DHT22;12268;52.110;5.548;2022-07-29T07:31:18;23.50;99.90
24085;DHT22;12268;52.110;5.548;2022-07-29T07:33:44;23.80;99.90
24085;DHT22;12268;52.110;5.548;2022-07-29T07:36:10;24.20;99.90
24085;DHT22;12268;52.110;5.548;2022-07-29T07:38:35;24.40;99.90
24085;DHT22;12268;52.110;5.548;2022-07-29T07:41:01;24.60;99.90
24085;DHT22;12268;52.110;5.548;2022-07-29T07:43:27;24.70;99.90
24085;DHT22;12268;52.110;5.548;2022-07-29T07:45:52;24.90;99.90
24085;DHT22;12268;52.110;5.548;2022-07-29T07:48:18;25.70;98.50
24085;DHT22;12268;52.110;5.548;2022-07-29T07:50:44;26.20;98.20
24085;DHT22;12268;52.110;5.548;2022-07-29T07:53:09;26.50;97.30
24085;DHT22;12268;52.110;5.548;2022-07-29T07:55:40;26.90;96.40
24085;DHT22;12268;52.110;5.548;2022-07-29T07:58:06;27.30;96.30
24085;DHT22;12268;52.110;5.548;2022-07-29T08:00:31;27.40;95.40
24085;DHT22;12268;52.110;5.548;2022-07-29T08:02:58;27.60;94.10
24085;DHT22;12268;52.110;5.548;2022-07-29T08:05:23;28.30;93.60
24085;DHT22;12268;52.110;5.548;2022-07-29T08:07:49;29.00;93.00
24085;DHT22;12268;52.110;5.548;2022-07-29T08:10:16;29.60;92.40
24085;DHT22;12268;52.110;5.548;2022-07-29T08:13:04;30.40;91.00
24085;DHT22;12268;52.110;5.548;2022-07-29T08:15:30;31.00;89.80
24085;DHT22;12268;52.110;5.548;2022-07-29T08:17:55;31.10;88.00
24085;DHT22;12268;52.110;5.548;2022-07-29T08:20:21;30.40;86.50
24085;DHT22;12268;52.110;5.548;2022-07-29T08:22:46;30.50;86.10
24085;DHT22;12268;52.110;5.548;2022-07-29T08:25:12;30.50;85.50
24085;DHT22;12268;52.110;5.548;2022-07-29T08:27:37;30.60;84.00
24085;DHT22;12268;52.110;5.548;2022-07-29T08:30:03;30.40;84.30
24085;DHT22;12268;52.110;5.548;2022-07-29T08:32:29;30.10;85.60
24085;DHT22;12268;52.110;5.548;2022-07-29T08:34:56;30.10;86.00
24085;DHT22;12268;52.110;5.548;2022-07-29T08:37:22;30.10;86.30
24085;DHT22;12268;52.110;5.548;2022-07-29T08:39:47;30.20;86.30
24085;DHT22;12268;52.110;5.548;2022-07-29T08:42:13;30.30;85.90
24085;DHT22;12268;52.110;5.548;2022-07-29T08:44:39;30.70;86.10
24085;DHT22;12268;52.110;5.548;2022-07-29T08:47:05;30.90;84.20
24085;DHT22;12268;52.110;5.548;2022-07-29T08:49:33;30.60;85.40
24085;DHT22;12268;52.110;5.548;2022-07-29T08:52:00;30.60;85.20
24085;DHT22;12268;52.110;5.548;2022-07-29T08:54:25;30.80;83.70
24085;DHT22;12268;52.110;5.548;2022-07-29T08:56:52;30.90;82.50
24085;DHT22;12268;52.110;5.548;2022-07-29T08:59:20;30.50;81.10
24085;DHT22;12268;52.110;5.548;2022-07-29T09:01:48;30.40;81.70
24085;DHT22;12268;52.110;5.548;2022-07-29T09:04:15;30.30;82.50
24085;DHT22;12268;52.110;5.548;2022-07-29T09:06:47;30.10;82.90
24085;DHT22;12268;52.110;5.548;2022-07-29T09:09:13;29.90;82.90
24085;DHT22;12268;52.110;5.548;2022-07-29T09:11:39;29.60;84.90
24085;DHT22;12268;52.110;5.548;2022-07-29T09:14:05;29.50;85.60
24085;DHT22;12268;52.110;5.548;2022-07-29T09:16:45;29.20;87.60
24085;DHT22;12268;52.110;5.548;2022-07-29T09:19:31;29.50;88.90
24085;DHT22;12268;52.110;5.548;2022-07-29T09:21:59;30.30;85.90
24085;DHT22;12268;52.110;5.548;2022-07-29T09:26:58;30.90;83.40
24085;DHT22;12268;52.110;5.548;2022-07-29T09:29:24;30.60;83.60
24085;DHT22;12268;52.110;5.548;2022-07-29T09:31:52;30.40;84.50
24085;DHT22;12268;52.110;5.548;2022-07-29T09:34:27;30.20;85.60
24085;DHT22;12268;52.110;5.548;2022-07-29T09:36:54;29.80;86.00
24085;DHT22;12268;52.110;5.548;2022-07-29T09:39:46;29.70;85.60
24085;DHT22;12268;52.110;5.548;2022-07-29T09:42:12;29.60;84.60
24085;DHT22;12268;52.110;5.548;2022-07-29T09:44:46;29.20;86.30
24085;DHT22;12268;52.110;5.548;2022-07-29T09:47:13;29.40;86.60
24085;DHT22;12268;52.110;5.548;2022-07-29T09:50:05;29.60;84.70
24085;DHT22;12268;52.110;5.548;2022-07-29T09:52:31;30.00;85.80
24085;DHT22;12268;52.110;5.548;2022-07-29T09:55:08;30.00;85.00
24085;DHT22;12268;52.110;5.548;2022-07-29T09:57:34;30.20;85.10
24085;DHT22;12268;52.110;5.548;2022-07-29T10:00:11;30.40;85.50
24085;DHT22;12268;52.110;5.548;2022-07-29T10:02:39;30.60;84.80
24085;DHT22;12268;52.110;5.548;2022-07-29T10:05:20;30.80;84.80
24085;DHT22;12268;52.110;5.548;2022-07-29T10:07:54;30.90;83.00
24085;DHT22;12268;52.110;5.548;2022-07-29T10:12:55;31.40;81.60
24085;DHT22;12268;52.110;5.548;2022-07-29T10:15:26;31.70;82.10
24085;DHT22;12268;52.110;5.548;2022-07-29T10:17:53;32.10;81.70
24085;DHT22;12268;52.110;5.548;2022-07-29T10:20:20;32.80;79.70
24085;DHT22;12268;52.110;5.548;2022-07-29T10:22:47;34.50;77.10
24085;DHT22;12268;52.110;5.548;2022-07-29T10:25:14;35.40;74.10
24085;DHT22;12268;52.110;5.548;2022-07-29T10:27:39;36.80;72.10
24085;DHT22;12268;52.110;5.548;2022-07-29T10:30:05;38.50;66.20
24085;DHT22;12268;52.110;5.548;2022-07-29T10:32:46;40.40;63.00
24085;DHT22;12268;52.110;5.548;2022-07-29T10:38:17;42.10;55.20
24085;DHT22;12268;52.110;5.548;2022-07-29T10:41:13;42.60;53.40
24085;DHT22;12268;52.110;5.548;2022-07-29T10:44:02;42.70;49.90
24085;DHT22;12268;52.110;5.548;2022-07-29T10:46:37;42.90;50.00
24085;DHT22;12268;52.110;5.548;2022-07-29T10:54:18;42.60;49.60
24085;DHT22;12268;52.110;5.548;2022-07-29T10:56:44;43.50;48.60
24085;DHT22;12268;52.110;5.548;2022-07-29T11:01:52;44.60;45.80
24085;DHT22;12268;52.110;5.548;2022-07-29T11:07:19;44.10;46.10
24085;DHT22;12268;52.110;5.548;2022-07-29T11:15:12;45.90;44.00
24085;DHT22;12268;52.110;5.548;2022-07-29T11:23:30;48.10;40.60
24085;DHT22;12268;52.110;5.548;2022-07-29T11:31:19;48.10;40.00
24085;DHT22;12268;52.110;5.548;2022-07-29T11:33:45;48.70;38.30
24085;DHT22;12268;52.110;5.548;2022-07-29T11:36:12;49.30;37.60
24085;DHT22;12268;52.110;5.548;2022-07-29T11:38:38;48.00;38.20
24085;DHT22;12268;52.110;5.548;2022-07-29T11:41:23;48.20;37.80
24085;DHT22;12268;52.110;5.548;2022-07-29T11:46:45;46.00;37.40
24085;DHT22;12268;52.110;5.548;2022-07-29T11:49:12;44.20;39.40
24085;DHT22;12268;52.110;5.548;2022-07-29T11:51:39;42.20;40.20
24085;DHT22;12268;52.110;5.548;2022-07-29T11:54:05;40.40;43.40
24085;DHT22;12268;52.110;5.548;2022-07-29T11:56:34;39.50;44.20
24085;DHT22;12268;52.110;5.548;2022-07-29T11:59:04;38.90;45.40
24085;DHT22;12268;52.110;5.548;2022-07-29T12:01:30;38.80;46.10
24085;DHT22;12268;52.110;5.548;2022-07-29T12:04:06;39.20;46.10
24085;DHT22;12268;52.110;5.548;2022-07-29T12:06:35;40.00;45.50
24085;DHT22;12268;52.110;5.548;2022-07-29T12:09:07;40.10;45.10
24085;DHT22;12268;52.110;5.548;2022-07-29T12:11:33;39.50;46.20
24085;DHT22;12268;52.110;5.548;2022-07-29T12:13:58;39.00;46.50
24085;DHT22;12268;52.110;5.548;2022-07-29T12:16:35;38.40;46.10
24085;DHT22;12268;52.110;5.548;2022-07-29T12:19:01;38.10;47.00
24085;DHT22;12268;52.110;5.548;2022-07-29T12:21:47;38.20;47.10
24085;DHT22;12268;52.110;5.548;2022-07-29T12:24:13;38.70;48.40
24085;DHT22;12268;52.110;5.548;2022-07-29T12:26:51;39.10;47.70
24085;DHT22;12268;52.110;5.548;2022-07-29T12:29:18;39.20;46.30
24085;DHT22;12268;52.110;5.548;2022-07-29T12:31:44;39.40;47.00
24085;DHT22;12268;52.110;5.548;2022-07-29T12:34:12;39.60;46.80
24085;DHT22;12268;52.110;5.548;2022-07-29T12:36:40;39.40;46.20
24085;DHT22;12268;52.110;5.548;2022-07-29T12:39:05;39.60;46.40
24085;DHT22;12268;52.110;5.548;2022-07-29T12:41:31;39.00;46.40
24085;DHT22;12268;52.110;5.548;2022-07-29T12:43:57;38.30;46.60
24085;DHT22;12268;52.110;5.548;2022-07-29T12:46:23;37.90;47.20
24085;DHT22;12268;52.110;5.548;2022-07-29T12:48:53;37.60;47.80
24085;DHT22;12268;52.110;5.548;2022-07-29T12:51:36;37.40;48.10
24085;DHT22;12268;52.110;5.548;2022-07-29T12:54:13;37.00;50.50
24085;DHT22;12268;52.110;5.548;2022-07-29T12:56:41;36.90;49.50
24085;DHT22;12268;52.110;5.548;2022-07-29T12:59:14;36.90;48.30
24085;DHT22;12268;52.110;5.548;2022-07-29T13:01:39;36.80;48.80
24085;DHT22;12268;52.110;5.548;2022-07-29T13:04:05;38.20;48.30
24085;DHT22;12268;52.110;5.548;2022-07-29T13:06:42;39.20;46.60
24085;DHT22;12268;52.110;5.548;2022-07-29T13:09:17;39.20;46.90
24085;DHT22;12268;52.110;5.548;2022-07-29T13:11:44;39.70;47.10
24085;DHT22;12268;52.110;5.548;2022-07-29T13:14:12;39.70;46.70
24085;DHT22;12268;52.110;5.548;2022-07-29T13:17:09;40.10;46.00
24085;DHT22;12268;52.110;5.548;2022-07-29T13:19:36;41.50;45.00
24085;DHT22;12268;52.110;5.548;2022-07-29T13:22:03;42.10;43.90
24085;DHT22;12268;52.110;5.548;2022-07-29T13:24:28;41.90;43.90
24085;DHT22;12268;52.110;5.548;2022-07-29T13:26:54;42.40;43.20
24085;DHT22;12268;52.110;5.548;2022-07-29T13:29:20;42.60;44.10
24085;DHT22;12268;52.110;5.548;2022-07-29T13:31:45;43.10;44.10
24085;DHT22;12268;52.110;5.548;2022-07-29T13:34:11;42.80;40.90
24085;DHT22;12268;52.110;5.548;2022-07-29T13:36:36;41.90;44.70
24085;DHT22;12268;52.110;5.548;2022-07-29T13:39:03;41.10;45.10
24085;DHT22;12268;52.110;5.548;2022-07-29T13:41:29;41.10;44.90
24085;DHT22;12268;52.110;5.548;2022-07-29T13:43:54;41.40;43.90
24085;DHT22;12268;52.110;5.548;2022-07-29T13:46:20;41.70;43.20
24085;DHT22;12268;52.110;5.548;2022-07-29T13:48:46;40.60;42.70
24085;DHT22;12268;52.110;5.548;2022-07-29T13:51:12;39.20;43.80
24085;DHT22;12268;52.110;5.548;2022-07-29T13:53:37;38.20;46.10
24085;DHT22;12268;52.110;5.548;2022-07-29T13:56:03;37.80;47.30
24085;DHT22;12268;52.110;5.548;2022-07-29T13:58:31;38.00;47.30
24085;DHT22;12268;52.110;5.548;2022-07-29T14:00:57;38.00;46.90
24085;DHT22;12268;52.110;5.548;2022-07-29T14:03:22;37.80;48.40
24085;DHT22;12268;52.110;5.548;2022-07-29T14:05:49;37.10;49.30
24085;DHT22;12268;52.110;5.548;2022-07-29T14:08:14;36.50;49.10
24085;DHT22;12268;52.110;5.548;2022-07-29T14:10:40;36.60;48.80
24085;DHT22;12268;52.110;5.548;2022-07-29T14:13:06;36.40;46.90
24085;DHT22;12268;52.110;5.548;2022-07-29T14:15:31;36.20;48.80
24085;DHT22;12268;52.110;5.548;2022-07-29T14:17:57;36.40;49.70
24085;DHT22;12268;52.110;5.548;2022-07-29T14:20:22;36.10;48.10
24085;DHT22;12268;52.110;5.548;2022-07-29T14:22:48;36.00;49.60
24085;DHT22;12268;52.110;5.548;2022-07-29T14:25:13;35.40;48.20
24085;DHT22;12268;52.110;5.548;2022-07-29T14:27:39;35.50;51.00
24085;DHT22;12268;52.110;5.548;2022-07-29T14:30:05;35.80;49.10
24085;DHT22;12268;52.110;5.548;2022-07-29T14:32:31;36.30;49.80
24085;DHT22;12268;52.110;5.548;2022-07-29T14:34:57;36.50;48.60
24085;DHT22;12268;52.110;5.548;2022-07-29T14:37:22;36.60;47.10
24085;DHT22;12268;52.110;5.548;2022-07-29T14:39:48;36.50;47.60
24085;DHT22;12268;52.110;5.548;2022-07-29T14:42:13;36.30;47.30
24085;DHT22;12268;52.110;5.548;2022-07-29T14:44:40;36.50;47.50
24085;DHT22;12268;52.110;5.548;2022-07-29T14:47:06;36.20;46.70
24085;DHT22;12268;52.110;5.548;2022-07-29T14:49:31;36.20;46.90
24085;DHT22;12268;52.110;5.548;2022-07-29T14:51:57;36.00;48.40
24085;DHT22;12268;52.110;5.548;2022-07-29T14:54:22;35.90;50.00
24085;DHT22;12268;52.110;5.548;2022-07-29T14:56:48;36.30;49.30
24085;DHT22;12268;52.110;5.548;2022-07-29T14:59:16;36.10;47.50
24085;DHT22;12268;52.110;5.548;2022-07-29T15:01:41;35.50;49.00
24085;DHT22;12268;52.110;5.548;2022-07-29T15:04:07;35.70;49.80
24085;DHT22;12268;52.110;5.548;2022-07-29T15:06:33;35.80;50.00
24085;DHT22;12268;52.110;5.548;2022-07-29T15:08:59;35.60;46.90
24085;DHT22;12268;52.110;5.548;2022-07-29T15:11:24;35.50;48.10
24085;DHT22;12268;52.110;5.548;2022-07-29T15:13:50;34.90;49.00
24085;DHT22;12268;52.110;5.548;2022-07-29T15:16:16;34.00;49.60
24085;DHT22;12268;52.110;5.548;2022-07-29T15:18:41;33.90;51.80
24085;DHT22;12268;52.110;5.548;2022-07-29T15:21:07;34.00;50.80
24085;DHT22;12268;52.110;5.548;2022-07-29T15:23:33;33.70;52.10
24085;DHT22;12268;52.110;5.548;2022-07-29T15:26:02;34.20;52.40
24085;DHT22;12268;52.110;5.548;2022-07-29T15:28:27;34.40;50.40
24085;DHT22;12268;52.110;5.548;2022-07-29T15:30:53;34.90;51.10
24085;DHT22;12268;52.110;5.548;2022-07-29T15:33:19;34.90;51.20
24085;DHT22;12268;52.110;5.548;2022-07-29T15:35:45;34.80;50.80
24085;DHT22;12268;52.110;5.548;2022-07-29T15:38:11;34.10;51.00
24085;DHT22;12268;52.110;5.548;2022-07-29T15:40:38;33.70;53.30
24085;DHT22;12268;52.110;5.548;2022-07-29T15:43:05;34.00;53.10
24085;DHT22;12268;52.110;5.548;2022-07-29T15:45:38;34.60;52.90
24085;DHT22;12268;52.110;5.548;2022-07-29T15:48:08;34.70;52.10
24085;DHT22;12268;52.110;5.548;2022-07-29T15:50:34;34.70;51.80
24085;DHT22;12268;52.110;5.548;2022-07-29T15:53:00;34.90;53.40
24085;DHT22;12268;52.110;5.548;2022-07-29T15:55:26;35.00;52.90
24085;DHT22;12268;52.110;5.548;2022-07-29T15:57:51;35.00;52.50
24085;DHT22;12268;52.110;5.548;2022-07-29T16:00:17;35.00;52.60
24085;DHT22;12268;52.110;5.548;2022-07-29T16:02:43;35.00;51.50
24085;DHT22;12268;52.110;5.548;2022-07-29T16:05:09;35.10;50.80
24085;DHT22;12268;52.110;5.548;2022-07-29T16:07:35;35.20;50.70
24085;DHT22;12268;52.110;5.548;2022-07-29T16:10:02;35.30;50.30
24085;DHT22;12268;52.110;5.548;2022-07-29T16:12:28;35.40;50.10
24085;DHT22;12268;52.110;5.548;2022-07-29T16:14:53;35.30;50.50
24085;DHT22;12268;52.110;5.548;2022-07-29T16:17:19;35.20;50.60
24085;DHT22;12268;52.110;5.548;2022-07-29T16:19:45;35.40;49.50
24085;DHT22;12268;52.110;5.548;2022-07-29T16:22:11;35.40;49.50
24085;DHT22;12268;52.110;5.548;2022-07-29T16:24:37;35.50;48.10